createdAt,value
2023-05-15T05:40:56.058Z,24.73
2023-05-15T05:43:44.018Z,27.23
2023-05-15T05:46:32.012Z,26.88
2023-05-15T05:49:20.014Z,27.17
2023-05-15T05:52:11.163Z,27.48
2023-05-15T05:54:59.054Z,28.08
2023-05-15T05:57:48.555Z,29.13
2023-05-15T06:00:36.533Z,31.55
2023-05-15T06:03:26.029Z,30.80
2023-05-15T06:06:14.094Z,26.02
2023-05-15T06:09:02.363Z,27.52
2023-05-15T06:11:50.379Z,26.58
2023-05-15T06:14:39.658Z,26.75
2023-05-15T06:17:27.678Z,29.20
2023-05-15T06:20:16.644Z,26.90
2023-05-15T06:23:04.565Z,25.02
2023-05-15T06:25:52.507Z,25.08
2023-05-15T06:28:40.520Z,25.42
2023-05-15T06:31:30.001Z,22.50
2023-05-15T06:34:18.032Z,21.38
2023-05-15T06:37:06.337Z,23.08
2023-05-15T06:39:54.258Z,24.88
2023-05-15T06:42:42.224Z,23.45
2023-05-15T06:45:30.174Z,24.50
2023-05-15T06:48:19.602Z,20.58
2023-05-15T06:51:07.694Z,24.27
2023-05-15T06:53:55.629Z,25.73
2023-05-15T06:56:43.696Z,23.15
2023-05-15T06:59:34.526Z,24.58
2023-05-15T07:02:22.552Z,24.90
2023-05-15T07:05:12.593Z,26.20
2023-05-15T07:08:01.780Z,24.63
2023-05-15T07:10:50.464Z,23.15
2023-05-15T07:13:38.409Z,22.45
2023-05-15T07:16:26.414Z,24.88
2023-05-15T07:19:14.595Z,22.92
2023-05-15T07:22:03.876Z,26.17
2023-05-15T07:24:51.852Z,27.45
2023-05-15T07:27:39.762Z,26.25
2023-05-15T07:30:27.908Z,26.45
2023-05-15T07:33:16.051Z,25.67
2023-05-15T07:36:04.065Z,23.85
2023-05-15T07:38:53.423Z,20.35
2023-05-15T07:41:41.335Z,25.20
2023-05-15T07:44:29.332Z,21.77
2023-05-15T07:47:17.223Z,20.02
2023-05-15T07:50:05.762Z,22.05
2023-05-15T07:52:53.841Z,22.52
2023-05-15T07:55:44.444Z,21.55
2023-05-15T07:58:35.518Z,23.52
2023-05-15T08:01:23.434Z,25.20
2023-05-15T08:04:11.586Z,23.65
2023-05-15T08:06:59.640Z,22.33
2023-05-15T08:09:47.589Z,24.23
2023-05-15T08:12:36.949Z,26.38
2023-05-15T08:15:25.284Z,21.40
2023-05-15T08:18:13.398Z,25.20
2023-05-15T08:21:02.472Z,17.10
2023-05-15T08:23:53.427Z,22.45
2023-05-15T08:26:41.404Z,26.98
2023-05-15T08:29:30.837Z,25.70
2023-05-15T08:32:18.891Z,20.80
2023-05-15T08:35:07.987Z,18.23
2023-05-15T08:37:55.912Z,23.83
2023-05-15T08:40:48.566Z,22.98
2023-05-15T08:43:39.216Z,24.65
2023-05-15T08:46:29.668Z,22.95
2023-05-15T08:49:25.551Z,23.42
2023-05-15T08:52:13.864Z,24.08
2023-05-15T08:55:02.684Z,23.65
2023-05-15T08:57:51.482Z,23.13
2023-05-15T09:00:39.698Z,23.80
2023-05-15T09:03:29.127Z,21.48
2023-05-15T09:06:17.592Z,22.75
2023-05-15T09:09:06.456Z,21.27
2023-05-15T09:11:55.211Z,22.23
2023-05-15T09:14:43.615Z,21.40
2023-05-15T09:17:32.086Z,22.20
2023-05-15T09:20:29.204Z,20.98
2023-05-15T09:23:26.119Z,21.45
2023-05-15T09:26:14.294Z,20.75
2023-05-15T09:29:03.833Z,20.83
2023-05-15T09:31:52.091Z,17.27
2023-05-15T09:34:41.556Z,20.58
2023-05-15T09:37:32.683Z,20.30
2023-05-15T09:40:20.909Z,18.17
2023-05-15T09:43:11.458Z,16.55
2023-05-15T09:45:59.483Z,17.15
2023-05-15T09:48:47.950Z,17.25
2023-05-15T09:51:36.010Z,16.98
2023-05-15T09:54:27.553Z,17.92
2023-05-15T09:57:16.067Z,17.77
2023-05-15T10:00:11.817Z,17.42
2023-05-15T10:03:00.100Z,16.05
2023-05-15T10:05:48.510Z,15.05
2023-05-15T10:08:37.400Z,16.38
2023-05-15T10:11:27.661Z,13.63
2023-05-15T10:14:16.575Z,15.13
2023-05-15T10:17:04.768Z,15.15
2023-05-15T10:19:58.096Z,13.50
2023-05-15T10:22:49.144Z,15.40
2023-05-15T10:25:42.631Z,15.02
2023-05-15T10:28:33.175Z,15.98
2023-05-15T10:31:21.999Z,15.70
2023-05-15T10:34:11.227Z,14.82
2023-05-15T10:37:00.422Z,14.07
2023-05-15T10:39:49.151Z,13.73
2023-05-15T10:42:38.393Z,16.52
2023-05-15T10:45:28.203Z,13.25
2023-05-15T10:48:17.156Z,14.75
2023-05-15T10:51:05.205Z,12.98
2023-05-15T10:53:53.524Z,11.57
2023-05-15T10:56:43.521Z,11.50
2023-05-15T10:59:35.964Z,10.05
2023-05-15T11:02:29.495Z,14.05
2023-05-15T11:05:17.599Z,13.73
2023-05-15T11:08:26.092Z,11.90
2023-05-15T11:11:47.461Z,11.88
2023-05-15T11:14:37.880Z,13.52
2023-05-15T11:17:27.882Z,11.70
2023-05-15T11:20:15.973Z,30.70
2023-05-15T11:23:03.946Z,15.55
2023-05-15T11:25:55.149Z,13.32
2023-05-15T11:28:47.452Z,15.98
2023-05-15T11:31:38.231Z,13.18
2023-05-15T11:34:34.380Z,13.45
2023-05-15T11:37:25.426Z,11.35
2023-05-15T11:40:21.345Z,13.13
2023-05-15T11:43:18.219Z,12.00
2023-05-15T11:46:08.662Z,11.10
2023-05-15T11:48:58.395Z,11.60
2023-05-15T11:51:51.608Z,12.13
2023-05-15T11:54:39.843Z,12.90
2023-05-15T11:57:28.200Z,12.95
2023-05-15T12:00:17.137Z,12.02
2023-05-15T12:03:05.321Z,13.23
2023-05-15T12:05:59.665Z,13.40
2023-05-15T12:08:53.763Z,12.82
2023-05-15T12:11:41.900Z,11.10
2023-05-15T12:14:29.971Z,11.02
2023-05-15T12:17:19.632Z,11.77
2023-05-15T12:20:11.078Z,12.18
2023-05-15T12:22:59.328Z,8.30
2023-05-15T12:25:50.811Z,11.45
2023-05-15T12:28:39.709Z,11.25
2023-05-15T12:31:27.861Z,12.43
2023-05-15T12:34:16.157Z,10.27
2023-05-15T12:37:04.416Z,10.90
2023-05-15T12:39:54.909Z,10.73
2023-05-15T12:42:45.224Z,10.07
2023-05-15T12:45:35.503Z,9.88
2023-05-15T12:48:24.176Z,9.85
2023-05-15T12:51:12.584Z,10.68
2023-05-15T12:54:00.638Z,10.73
2023-05-15T12:56:49.754Z,9.98
2023-05-15T12:59:40.129Z,9.60
2023-05-15T13:02:29.262Z,8.82
2023-05-15T13:05:17.422Z,8.50
2023-05-15T13:08:07.496Z,8.95
2023-05-15T13:10:59.017Z,8.75
2023-05-15T13:13:48.460Z,8.85
2023-05-15T13:16:38.065Z,8.88
2023-05-15T13:19:26.144Z,10.52
2023-05-15T13:22:14.115Z,8.35
2023-05-15T13:25:02.135Z,8.73
2023-05-15T13:27:50.143Z,7.80
2023-05-15T13:30:41.771Z,9.52
2023-05-15T13:33:32.060Z,9.55
2023-05-15T13:36:20.097Z,7.90
2023-05-15T13:39:08.132Z,8.70
2023-05-15T13:41:56.091Z,9.32
2023-05-15T13:44:44.072Z,10.07
2023-05-15T13:47:32.021Z,7.90
2023-05-15T13:50:21.437Z,10.43
2023-05-15T13:53:09.463Z,8.68
2023-05-15T13:55:57.550Z,9.50
2023-05-15T13:58:45.640Z,8.70
2023-05-15T14:01:33.684Z,10.18
2023-05-15T14:04:21.684Z,9.18
2023-05-15T14:07:11.278Z,10.52
2023-05-15T14:09:59.373Z,10.75
2023-05-15T14:12:47.315Z,10.32
2023-05-15T14:15:35.264Z,9.77
2023-05-15T14:18:23.205Z,9.80
2023-05-15T14:21:11.172Z,10.55
2023-05-15T14:24:00.480Z,8.55
2023-05-15T14:26:48.536Z,9.25
2023-05-15T14:29:36.837Z,10.57
2023-05-15T14:32:25.118Z,8.73
2023-05-15T14:35:13.067Z,9.32
2023-05-15T14:38:00.979Z,8.55
2023-05-15T14:40:50.416Z,11.98
2023-05-15T14:43:38.404Z,14.75
2023-05-15T14:46:26.397Z,9.85
2023-05-15T14:49:14.482Z,8.75
2023-05-15T14:52:02.589Z,11.02
2023-05-15T14:55:05.002Z,10.52
2023-05-15T14:57:59.313Z,9.88
2023-05-15T15:00:48.369Z,10.40
2023-05-15T15:03:36.397Z,8.60
2023-05-15T15:06:24.414Z,8.82
2023-05-15T15:09:12.360Z,8.32
2023-05-15T15:12:00.473Z,8.43
2023-05-15T15:14:49.929Z,8.23
2023-05-15T15:20:27.358Z,7.22
2023-05-15T15:23:15.708Z,8.43
2023-05-15T15:26:03.694Z,8.20
2023-05-15T15:28:51.785Z,10.30
2023-05-15T15:31:41.113Z,9.00
2023-05-15T15:34:29.028Z,9.38
2023-05-15T15:37:17.053Z,8.38
2023-05-15T15:40:07.208Z,6.65
2023-05-15T15:42:55.133Z,7.93
2023-05-15T15:45:43.105Z,9.20
2023-05-15T15:48:32.687Z,11.57
2023-05-15T15:51:21.041Z,10.57
2023-05-15T15:54:08.972Z,10.80
2023-05-15T15:56:56.945Z,9.32
2023-05-15T15:59:45.120Z,10.40
2023-05-15T16:02:33.124Z,10.65
2023-05-15T16:05:22.659Z,10.13
2023-05-15T16:08:10.640Z,11.50
2023-05-15T16:10:58.659Z,9.95
2023-05-15T16:13:46.692Z,10.02
2023-05-15T16:16:34.631Z,8.85
2023-05-15T16:19:23.091Z,9.43
2023-05-15T16:22:12.417Z,9.60
2023-05-15T16:25:00.381Z,9.07
2023-05-15T16:27:48.344Z,10.10
2023-05-15T16:30:48.009Z,9.85
2023-05-15T16:33:37.294Z,10.20
2023-05-15T16:36:25.300Z,9.43
2023-05-15T16:39:14.607Z,9.18
2023-05-15T16:42:03.215Z,9.77
2023-05-15T16:44:51.203Z,10.45
2023-05-15T16:47:41.291Z,10.48
2023-05-15T16:50:30.441Z,9.57
2023-05-15T16:53:18.809Z,10.43
2023-05-15T16:56:08.670Z,9.77
2023-05-15T16:58:56.617Z,9.85
2023-05-15T17:01:44.677Z,10.00
2023-05-15T17:04:35.175Z,8.88
2023-05-15T17:07:23.176Z,8.77
2023-05-15T17:10:12.653Z,9.95
2023-05-15T17:13:01.992Z,9.80
2023-05-15T17:15:51.266Z,10.30
2023-05-15T17:18:39.995Z,10.43
2023-05-15T17:21:28.104Z,11.45
2023-05-15T17:24:16.347Z,11.40
2023-05-15T17:27:04.348Z,12.05
2023-05-15T17:29:53.779Z,10.15
2023-05-15T17:32:44.574Z,11.77
2023-05-15T17:35:33.223Z,11.45
2023-05-15T17:38:21.475Z,11.13
2023-05-15T17:41:09.556Z,11.10
2023-05-15T17:43:57.751Z,12.23
2023-05-15T17:46:47.122Z,12.32
2023-05-15T17:49:35.285Z,12.93
2023-05-15T17:52:23.257Z,13.48
2023-05-15T17:55:11.263Z,15.55
2023-05-15T17:57:59.234Z,13.55
2023-05-15T18:00:47.274Z,15.23
2023-05-15T18:03:36.599Z,15.55
2023-05-15T18:06:24.750Z,14.50
2023-05-15T18:09:12.698Z,16.45
2023-05-15T18:12:00.754Z,15.88
2023-05-15T18:14:48.893Z,16.70
2023-05-15T18:17:37.009Z,17.40
2023-05-15T18:20:26.606Z,16.63
2023-05-15T18:23:14.615Z,15.43
2023-05-15T18:26:02.574Z,16.45
2023-05-15T18:28:50.844Z,17.27
2023-05-15T18:31:38.967Z,15.70
2023-05-15T18:34:27.017Z,17.42
2023-05-15T18:37:16.336Z,16.55
2023-05-15T18:40:05.444Z,17.60
2023-05-15T18:42:55.307Z,18.20
2023-05-15T18:45:43.336Z,18.60
2023-05-15T18:48:31.897Z,18.58
2023-05-15T18:51:20.245Z,18.73
2023-05-15T18:54:09.636Z,18.17
2023-05-15T18:56:57.766Z,19.38
2023-05-15T18:59:45.776Z,19.63
2023-05-15T19:02:33.966Z,20.15
2023-05-15T19:05:22.470Z,20.38
2023-05-15T19:08:10.557Z,19.30
2023-05-15T19:11:01.636Z,19.58
2023-05-15T19:13:49.890Z,18.17
2023-05-15T19:16:37.962Z,19.63
2023-05-15T19:19:26.322Z,20.83
2023-05-15T19:22:14.677Z,20.20
2023-05-15T19:25:02.686Z,20.63
2023-05-15T19:27:52.205Z,19.75
2023-05-15T19:30:40.405Z,20.67
2023-05-15T19:33:28.353Z,20.77
2023-05-15T19:36:19.371Z,22.05
2023-05-15T19:39:07.610Z,22.63
2023-05-15T19:41:57.624Z,24.48
2023-05-15T19:44:47.004Z,24.17
2023-05-15T19:47:35.414Z,25.63
2023-05-15T19:50:23.842Z,25.42
2023-05-15T19:53:12.339Z,24.60
2023-05-15T19:56:00.433Z,26.77
2023-05-15T19:58:48.571Z,27.50
2023-05-15T20:01:37.989Z,24.70
2023-05-15T20:04:26.091Z,26.02
2023-05-15T20:07:14.105Z,28.25
2023-05-15T20:10:02.393Z,28.10
2023-05-15T20:12:50.407Z,29.42
2023-05-15T20:15:40.145Z,28.55
2023-05-15T20:18:32.163Z,27.48
2023-05-15T20:21:21.832Z,29.83
2023-05-15T20:24:10.386Z,31.42
2023-05-15T20:26:58.554Z,30.55
2023-05-15T20:29:46.562Z,31.75
2023-05-15T20:32:34.973Z,32.22
2023-05-15T20:35:25.175Z,31.83
2023-05-15T20:38:13.900Z,32.53
2023-05-15T20:41:02.158Z,33.33
2023-05-15T20:43:50.091Z,31.42
2023-05-15T20:46:39.967Z,32.22
2023-05-15T20:49:27.937Z,32.10
2023-05-15T20:52:17.315Z,33.78
2023-05-15T20:55:05.861Z,33.53
2023-05-15T20:57:53.875Z,33.92
2023-05-15T21:00:41.763Z,32.88
2023-05-15T21:03:30.329Z,31.83
2023-05-15T21:06:18.372Z,30.70
2023-05-15T21:09:08.516Z,32.00
2023-05-15T21:11:56.621Z,31.60
2023-05-15T21:14:44.598Z,32.40
2023-05-15T21:17:32.654Z,33.00
2023-05-15T21:20:20.761Z,33.63
2023-05-15T21:23:08.809Z,35.92
2023-05-15T21:25:58.196Z,35.90
2023-05-15T21:28:46.249Z,33.17
2023-05-15T21:31:34.252Z,36.00
2023-05-15T21:34:22.569Z,36.53
2023-05-15T21:37:10.535Z,40.38
2023-05-15T21:39:58.529Z,40.70
2023-05-15T21:42:47.790Z,44.00
2023-05-15T21:45:35.793Z,41.55
2023-05-15T21:48:23.778Z,41.60
2023-05-15T21:51:11.814Z,38.13
2023-05-15T21:53:59.817Z,40.50
2023-05-15T21:56:47.728Z,42.58
2023-05-15T21:59:37.085Z,42.63
2023-05-15T22:02:25.013Z,41.65
2023-05-15T22:05:13.086Z,41.58
2023-05-15T22:08:01.237Z,41.65
2023-05-15T22:10:49.433Z,44.22
2023-05-15T22:13:37.517Z,41.55
2023-05-15T22:16:26.941Z,45.38
2023-05-15T22:19:29.047Z,44.38
2023-05-15T22:22:21.102Z,43.55
2023-05-15T22:25:10.080Z,43.08
2023-05-15T22:27:58.000Z,45.25
2023-05-15T22:30:45.986Z,43.65
2023-05-15T22:33:35.383Z,44.20
2023-05-15T22:36:23.342Z,43.95
2023-05-15T22:39:11.449Z,41.97
2023-05-15T22:41:59.382Z,43.85
2023-05-15T22:44:47.689Z,43.47
2023-05-15T22:47:35.747Z,43.53
2023-05-15T22:50:25.377Z,39.58
2023-05-15T22:53:13.675Z,43.47
2023-05-15T22:56:01.598Z,43.70
2023-05-15T22:58:49.716Z,43.60
2023-05-15T23:01:37.797Z,42.78
2023-05-15T23:04:26.126Z,43.47
2023-05-15T23:07:17.309Z,43.70
2023-05-15T23:10:05.872Z,45.00
2023-05-15T23:12:53.903Z,43.45
2023-05-15T23:15:44.174Z,43.22
2023-05-15T23:18:32.254Z,44.58
2023-05-15T23:21:20.265Z,41.25
2023-05-15T23:24:09.719Z,46.47
2023-05-15T23:26:57.750Z,43.03
2023-05-15T23:29:46.222Z,41.22
2023-05-15T23:32:34.288Z,43.67
2023-05-15T23:35:22.372Z,39.22
2023-05-15T23:38:10.327Z,43.05
2023-05-15T23:40:59.773Z,43.67
2023-05-15T23:43:49.687Z,43.58
2023-05-15T23:46:38.799Z,42.85
2023-05-15T23:49:26.900Z,43.90
2023-05-15T23:52:14.937Z,43.35
2023-05-15T23:55:02.909Z,40.63
2023-05-15T23:57:52.286Z,39.42
